createdAt,value
2017-06-09T00:00:58.324Z,0
2017-06-09T00:02:08.273Z,0
2017-06-09T00:03:18.217Z,0
2017-06-09T00:04:28.479Z,0
2017-06-09T00:05:38.426Z,0
2017-06-09T00:06:48.688Z,0
2017-06-09T00:07:58.947Z,0
2017-06-09T00:09:09.217Z,0
2017-06-09T00:10:18.748Z,0
2017-06-09T00:11:28.696Z,0
2017-06-09T00:12:38.962Z,0
2017-06-09T00:13:48.599Z,0
2017-06-09T00:14:58.864Z,0
2017-06-09T00:16:09.130Z,0
2017-06-09T00:17:18.771Z,0
2017-06-09T00:18:28.723Z,0
2017-06-09T00:19:38.982Z,0
2017-06-09T00:20:49.248Z,0
2017-06-09T00:21:59.513Z,0
2017-06-09T00:23:09.778Z,0
2017-06-09T00:24:19.724Z,0
2017-06-09T00:25:29.677Z,0
2017-06-09T00:26:39.622Z,0
2017-06-09T00:27:49.726Z,0
2017-06-09T00:28:59.713Z,0
2017-06-09T00:30:09.664Z,0
2017-06-09T00:31:19.629Z,0
2017-06-09T00:32:29.577Z,0
2017-06-09T00:33:39.848Z,0
2017-06-09T00:34:49.492Z,0
2017-06-09T00:35:59.130Z,0
2017-06-09T00:37:08.772Z,0
2017-06-09T00:38:19.031Z,0
2017-06-09T00:39:29.126Z,0
2017-06-09T00:40:39.073Z,0
2017-06-09T00:41:48.707Z,0
2017-06-09T00:42:58.966Z,0
2017-06-09T00:44:08.597Z,0
2017-06-09T00:45:18.236Z,0
2017-06-09T00:46:28.502Z,0
2017-06-09T00:47:38.763Z,0
2017-06-09T00:48:49.026Z,0
2017-06-09T00:49:59.288Z,0
2017-06-09T00:51:09.235Z,0
2017-06-09T00:52:19.194Z,0
2017-06-09T00:53:29.462Z,0
2017-06-09T00:54:39.741Z,0
2017-06-09T00:55:49.377Z,0
2017-06-09T00:56:59.015Z,0
2017-06-09T00:58:09.309Z,0
2017-06-09T00:59:19.568Z,0
2017-06-09T01:00:29.522Z,0
2017-06-09T01:01:39.793Z,0
2017-06-09T01:02:49.427Z,0
2017-06-09T01:03:59.377Z,0
2017-06-09T01:05:09.334Z,0
2017-06-09T01:06:19.297Z,0
2017-06-09T01:07:28.933Z,0
2017-06-09T01:08:39.350Z,0
2017-06-09T01:09:49.616Z,0
2017-06-09T01:10:59.565Z,0
2017-06-09T01:12:09.549Z,0
2017-06-09T01:13:19.183Z,0
2017-06-09T01:14:29.456Z,0
2017-06-09T01:15:39.094Z,0
2017-06-09T01:16:49.044Z,0
2017-06-09T01:17:59.036Z,0
2017-06-09T01:19:08.674Z,0
2017-06-09T01:20:18.940Z,0
2017-06-09T01:21:29.214Z,0
2017-06-09T01:22:39.161Z,0
2017-06-09T01:23:49.111Z,0
2017-06-09T01:24:59.372Z,0
2017-06-09T01:26:09.789Z,0
2017-06-09T01:27:19.737Z,0
2017-06-09T01:28:29.370Z,0
2017-06-09T01:29:39.629Z,0
2017-06-09T01:30:49.889Z,0
2017-06-09T01:31:59.518Z,0
2017-06-09T01:33:09.471Z,0
2017-06-09T01:34:19.416Z,0
2017-06-09T01:35:29.679Z,0
2017-06-09T01:36:39.316Z,0
2017-06-09T01:37:49.314Z,0
2017-06-09T01:38:59.576Z,0
2017-06-09T01:40:09.528Z,0
2017-06-09T01:41:19.159Z,0
2017-06-09T01:42:28.798Z,0
2017-06-09T01:43:39.220Z,0
2017-06-09T01:44:49.168Z,0
2017-06-09T01:45:59.432Z,0
2017-06-09T01:47:09.699Z,0
2017-06-09T01:48:19.646Z,0
2017-06-09T01:49:29.911Z,0
2017-06-09T01:50:39.866Z,0
2017-06-09T01:51:49.499Z,0
2017-06-09T01:52:59.768Z,0
2017-06-09T01:54:09.713Z,0
2017-06-09T01:55:19.985Z,0
2017-06-09T01:56:29.623Z,0
2017-06-09T01:57:39.264Z,0
2017-06-09T01:58:49.214Z,0
2017-06-09T01:59:59.471Z,0
2017-06-09T02:01:09.889Z,0
2017-06-09T02:02:19.568Z,0
2017-06-09T02:03:29.528Z,0
2017-06-09T02:04:39.791Z,0
2017-06-09T02:05:50.057Z,0
2017-06-09T02:07:00.010Z,0
2017-06-09T02:08:09.959Z,0
2017-06-09T02:09:20.226Z,0
2017-06-09T02:10:30.217Z,0
2017-06-09T02:11:40.504Z,0
2017-06-09T02:12:50.772Z,0
2017-06-09T02:14:00.407Z,0
2017-06-09T02:15:10.685Z,0
2017-06-09T02:16:20.949Z,0
2017-06-09T02:17:31.222Z,0
2017-06-09T02:18:41.324Z,0
2017-06-09T02:19:51.589Z,0
2017-06-09T02:21:01.542Z,0
2017-06-09T02:22:11.493Z,0
2017-06-09T02:23:20.815Z,0
2017-06-09T02:24:31.083Z,0
2017-06-09T02:25:41.386Z,0
2017-06-09T02:26:51.333Z,0
2017-06-09T02:28:00.962Z,0
2017-06-09T02:29:11.236Z,0
2017-06-09T02:30:20.890Z,0
2017-06-09T02:31:30.523Z,0
2017-06-09T02:32:40.786Z,0
2017-06-09T02:33:50.738Z,0
2017-06-09T02:35:00.690Z,0
2017-06-09T02:36:11.117Z,0
2017-06-09T02:37:21.070Z,0
2017-06-09T02:38:31.334Z,0
2017-06-09T02:39:41.616Z,0
2017-06-09T02:40:51.878Z,0
2017-06-09T02:42:01.518Z,0
2017-06-09T02:43:11.787Z,0
2017-06-09T02:44:22.049Z,0
2017-06-09T02:45:32.305Z,0
2017-06-09T02:46:42.568Z,0
2017-06-09T02:47:52.206Z,0
2017-06-09T02:49:02.469Z,0
2017-06-09T02:50:12.740Z,0
2017-06-09T02:51:22.382Z,0
2017-06-09T02:52:32.649Z,0
2017-06-09T02:53:42.761Z,0
2017-06-09T02:54:52.714Z,0
2017-06-09T02:56:02.362Z,0
2017-06-09T02:57:12.311Z,0
2017-06-09T02:58:21.943Z,0
2017-06-09T02:59:32.213Z,0
2017-06-09T03:00:42.470Z,0
2017-06-09T03:01:52.735Z,0
2017-06-09T03:03:03.003Z,0
2017-06-09T03:04:12.949Z,0
2017-06-09T03:05:23.215Z,0
2017-06-09T03:06:33.480Z,0
2017-06-09T03:07:43.744Z,0
2017-06-09T03:08:53.373Z,0
2017-06-09T03:10:03.316Z,0
2017-06-09T03:11:13.730Z,0
2017-06-09T03:12:23.712Z,0
2017-06-09T03:13:33.340Z,4
2017-06-09T03:14:43.611Z,4
2017-06-09T03:15:53.561Z,4
2017-06-09T03:17:03.811Z,0
2017-06-09T03:18:14.079Z,0
2017-06-09T03:19:24.337Z,0
2017-06-09T03:20:34.283Z,0
2017-06-09T03:21:44.257Z,0
2017-06-09T03:22:54.212Z,0
2017-06-09T03:24:04.475Z,0
2017-06-09T03:25:14.737Z,4
2017-06-09T03:26:24.682Z,4
2017-06-09T03:27:34.629Z,4
2017-06-09T03:28:44.417Z,4
2017-06-09T03:29:54.685Z,4
2017-06-09T03:31:04.959Z,4
2017-06-09T03:32:15.219Z,4
2017-06-09T03:33:25.165Z,4
2017-06-09T03:34:35.430Z,4
2017-06-09T03:35:45.068Z,4
2017-06-09T03:36:54.697Z,4
2017-06-09T03:38:04.656Z,4
2017-06-09T03:39:14.599Z,4
2017-06-09T03:40:24.878Z,4
2017-06-09T03:41:34.829Z,4
2017-06-09T03:42:45.133Z,4
2017-06-09T03:43:55.398Z,4
2017-06-09T03:45:05.341Z,4
2017-06-09T03:46:15.753Z,4
2017-06-09T03:47:25.401Z,4
2017-06-09T03:48:35.698Z,4
2017-06-09T03:49:45.965Z,4
2017-06-09T03:50:55.912Z,0
2017-06-09T03:52:05.868Z,0
2017-06-09T03:53:16.131Z,0
2017-06-09T03:54:26.077Z,0
2017-06-09T03:55:36.337Z,0
2017-06-09T03:56:46.292Z,0
2017-06-09T03:57:55.615Z,0
2017-06-09T03:59:05.874Z,0
2017-06-09T04:00:15.827Z,0
2017-06-09T04:01:26.094Z,0
2017-06-09T04:02:35.731Z,0
2017-06-09T04:03:46.144Z,0
2017-06-09T04:04:55.783Z,0
2017-06-09T04:06:05.428Z,0
2017-06-09T04:07:15.377Z,0
2017-06-09T04:08:25.643Z,0
2017-06-09T04:09:35.907Z,4
2017-06-09T04:10:45.855Z,4
2017-06-09T04:11:55.176Z,4
2017-06-09T04:13:04.827Z,4
2017-06-09T04:14:15.087Z,0
2017-06-09T04:15:24.414Z,0
2017-06-09T04:16:34.367Z,0
2017-06-09T04:17:44.632Z,4
2017-06-09T04:18:54.261Z,4
2017-06-09T04:20:04.214Z,4
2017-06-09T04:21:14.625Z,0
2017-06-09T04:22:24.579Z,0
2017-06-09T04:23:33.898Z,0
2017-06-09T04:24:43.844Z,0
2017-06-09T04:25:53.482Z,0
2017-06-09T04:27:03.744Z,0
2017-06-09T04:28:14.013Z,0
2017-06-09T04:29:24.274Z,0
2017-06-09T04:30:34.220Z,0
2017-06-09T04:31:44.486Z,4
2017-06-09T04:32:54.431Z,4
2017-06-09T04:34:04.388Z,4
2017-06-09T04:35:14.655Z,4
2017-06-09T04:36:24.922Z,4
2017-06-09T04:37:35.181Z,4
2017-06-09T04:38:45.138Z,4
2017-06-09T04:39:55.088Z,4
2017-06-09T04:41:05.360Z,4
2017-06-09T04:42:14.993Z,4
2017-06-09T04:43:25.258Z,4
2017-06-09T04:44:35.204Z,4
2017-06-09T04:45:45.472Z,4
2017-06-09T04:46:55.738Z,4
2017-06-09T04:48:06.000Z,4
2017-06-09T04:49:15.951Z,4
2017-06-09T04:50:26.218Z,4
2017-06-09T04:51:36.167Z,4
2017-06-09T04:52:46.118Z,4
2017-06-09T04:53:55.438Z,4
2017-06-09T04:55:05.221Z,8
2017-06-09T04:56:14.543Z,8
2017-06-09T04:57:24.496Z,4
2017-06-09T04:58:34.441Z,8
2017-06-09T04:59:44.694Z,8
2017-06-09T05:00:54.637Z,8
2017-06-09T05:02:04.276Z,8
2017-06-09T05:03:14.261Z,8
2017-06-09T05:04:24.525Z,8
2017-06-09T05:05:34.477Z,8
2017-06-09T05:06:44.594Z,4
2017-06-09T05:07:54.552Z,4
2017-06-09T05:09:04.200Z,4
2017-06-09T05:10:14.460Z,4
2017-06-09T05:11:24.408Z,4
2017-06-09T05:12:34.405Z,8
2017-06-09T05:13:44.672Z,8
2017-06-09T05:14:54.931Z,8
2017-06-09T05:16:04.881Z,8
2017-06-09T05:17:14.522Z,4
2017-06-09T05:18:24.788Z,4
2017-06-09T05:19:35.047Z,8
2017-06-09T05:20:44.997Z,8
2017-06-09T05:21:55.268Z,8
2017-06-09T05:23:05.213Z,8
2017-06-09T05:24:14.995Z,8
2017-06-09T05:25:25.252Z,8
2017-06-09T05:26:35.196Z,8
2017-06-09T05:27:45.467Z,4
2017-06-09T05:28:55.417Z,4
2017-06-09T05:30:05.681Z,4
2017-06-09T05:31:15.948Z,8
2017-06-09T05:32:25.893Z,8
2017-06-09T05:33:35.851Z,8
2017-06-09T05:34:45.528Z,8
2017-06-09T05:35:55.804Z,8
2017-06-09T05:37:05.451Z,8
2017-06-09T05:38:15.714Z,8
2017-06-09T05:39:25.353Z,8
2017-06-09T05:40:35.305Z,8
2017-06-09T05:41:45.749Z,8
2017-06-09T05:42:54.754Z,8
2017-06-09T05:44:05.011Z,8
2017-06-09T05:45:15.280Z,8
2017-06-09T05:46:25.262Z,8
2017-06-09T05:47:35.532Z,8
2017-06-09T05:48:45.490Z,8
2017-06-09T05:49:55.758Z,8
2017-06-09T05:51:06.028Z,8
2017-06-09T05:52:15.673Z,8
2017-06-09T05:53:25.651Z,8
2017-06-09T05:54:35.608Z,8
2017-06-09T05:55:45.560Z,8
2017-06-09T05:56:55.819Z,8
2017-06-09T05:58:05.811Z,12
2017-06-09T05:59:16.224Z,16
2017-06-09T06:00:26.180Z,20
2017-06-09T06:01:36.132Z,28
2017-06-09T06:02:46.391Z,32
2017-06-09T06:03:56.346Z,40
2017-06-09T06:05:06.611Z,48
2017-06-09T06:06:16.560Z,52
2017-06-09T06:07:25.874Z,60
2017-06-09T06:08:35.510Z,64
2017-06-09T06:09:45.779Z,64
2017-06-09T06:10:56.046Z,68
2017-06-09T06:12:05.997Z,80
2017-06-09T06:13:15.642Z,88
2017-06-09T06:14:25.587Z,104
2017-06-09T06:15:35.539Z,100
2017-06-09T06:16:45.483Z,92
2017-06-09T06:17:55.431Z,108
2017-06-09T06:19:05.382Z,116
2017-06-09T06:20:15.020Z,116
2017-06-09T06:21:24.968Z,128
2017-06-09T06:22:34.752Z,128
2017-06-09T06:23:44.393Z,120
2017-06-09T06:24:54.345Z,140
2017-06-09T06:26:04.610Z,156
2017-06-09T06:27:14.871Z,160
2017-06-09T06:28:25.135Z,160
2017-06-09T06:29:34.769Z,124
2017-06-09T06:30:44.713Z,128
2017-06-09T06:31:54.978Z,144
2017-06-09T06:33:04.938Z,120
2017-06-09T06:34:14.889Z,132
2017-06-09T06:35:25.149Z,132
2017-06-09T06:36:34.785Z,140
2017-06-09T06:37:44.747Z,136
2017-06-09T06:38:55.153Z,124
2017-06-09T06:40:04.793Z,136
2017-06-09T06:41:14.439Z,132
2017-06-09T06:42:24.393Z,136
2017-06-09T06:43:34.655Z,132
2017-06-09T06:44:44.942Z,120
2017-06-09T06:45:54.578Z,132
2017-06-09T06:47:04.529Z,104
2017-06-09T06:48:14.796Z,116
2017-06-09T06:49:24.745Z,108
2017-06-09T06:50:34.845Z,88
2017-06-09T06:51:44.813Z,108
2017-06-09T06:52:54.763Z,100
2017-06-09T06:54:05.034Z,100
2017-06-09T06:55:14.980Z,76
2017-06-09T06:56:24.927Z,64
2017-06-09T06:57:34.882Z,80
2017-06-09T06:58:44.840Z,32
2017-06-09T06:59:54.792Z,32
2017-06-09T07:01:04.736Z,64
2017-06-09T07:02:14.995Z,48
2017-06-09T07:03:24.633Z,48
2017-06-09T07:04:34.905Z,40
2017-06-09T07:05:45.177Z,32
2017-06-09T07:06:55.135Z,36
2017-06-09T07:08:05.556Z,48
2017-06-09T07:09:15.503Z,56
2017-06-09T07:10:25.764Z,64
2017-06-09T07:11:35.720Z,64
2017-06-09T07:12:45.355Z,68
2017-06-09T07:13:55.304Z,68
2017-06-09T07:15:05.567Z,68
2017-06-09T07:16:15.514Z,60
2017-06-09T07:17:25.773Z,52
2017-06-09T07:18:35.404Z,52
2017-06-09T07:19:45.823Z,52
2017-06-09T07:20:55.771Z,36
2017-06-09T07:22:14.441Z,40
2017-06-09T07:23:24.394Z,44
2017-06-09T07:24:34.690Z,52
2017-06-09T07:25:44.331Z,60
2017-06-09T07:26:54.282Z,60
2017-06-09T07:28:04.244Z,60
2017-06-09T07:29:14.238Z,60
2017-06-09T07:30:23.245Z,56
2017-06-09T07:31:33.667Z,48
2017-06-09T07:32:43.931Z,64
2017-06-09T07:33:53.878Z,72
2017-06-09T07:35:04.139Z,64
2017-06-09T07:36:14.428Z,72
2017-06-09T07:37:24.740Z,76
2017-06-09T07:38:35.007Z,72
2017-06-09T07:39:45.271Z,80
2017-06-09T07:40:55.231Z,80
2017-06-09T07:42:05.499Z,84
2017-06-09T07:43:15.910Z,84
2017-06-09T07:44:25.857Z,80
2017-06-09T07:45:35.807Z,84
2017-06-09T07:46:46.076Z,80
2017-06-09T07:47:56.367Z,80
2017-06-09T07:49:06.358Z,80
2017-06-09T07:50:16.379Z,80
2017-06-09T07:51:26.756Z,80
2017-06-09T07:52:36.388Z,76
2017-06-09T07:53:46.336Z,76
2017-06-09T07:54:56.293Z,72
2017-06-09T07:56:06.241Z,72
2017-06-09T07:57:16.193Z,68
2017-06-09T07:58:26.147Z,72
2017-06-09T07:59:36.099Z,68
2017-06-09T08:00:46.370Z,60
2017-06-09T08:01:56.318Z,60
2017-06-09T08:03:05.951Z,72
2017-06-09T08:04:15.911Z,72
2017-06-09T08:05:25.869Z,72
2017-06-09T08:06:35.825Z,76
2017-06-09T08:07:46.090Z,72
2017-06-09T08:08:56.038Z,68
2017-06-09T08:10:05.364Z,68
2017-06-09T08:11:15.638Z,68
2017-06-09T08:12:25.736Z,68
2017-06-09T08:13:34.745Z,64
2017-06-09T08:14:44.386Z,60
2017-06-09T08:15:54.340Z,60
2017-06-09T08:17:04.599Z,60
2017-06-09T08:18:14.229Z,56
2017-06-09T08:19:24.188Z,56
2017-06-09T08:20:34.179Z,56
2017-06-09T08:21:44.460Z,56
2017-06-09T08:22:54.811Z,60
2017-06-09T08:24:04.448Z,56
2017-06-09T08:25:14.401Z,56
2017-06-09T08:26:24.672Z,60
2017-06-09T08:27:34.627Z,56
2017-06-09T08:28:44.267Z,52
2017-06-09T08:29:54.679Z,52
2017-06-09T08:31:04.624Z,52
2017-06-09T08:32:14.260Z,52
2017-06-09T08:33:23.581Z,48
2017-06-09T08:34:33.251Z,48
2017-06-09T08:35:43.523Z,48
2017-06-09T08:36:52.850Z,48
2017-06-09T08:38:03.125Z,48
2017-06-09T08:39:12.765Z,44
2017-06-09T08:40:22.717Z,44
2017-06-09T08:41:32.813Z,40
2017-06-09T08:42:43.074Z,40
2017-06-09T08:43:53.026Z,44
2017-06-09T08:45:02.346Z,44
2017-06-09T08:46:11.984Z,40
2017-06-09T08:47:21.619Z,44
2017-06-09T08:48:31.255Z,44
2017-06-09T08:49:41.199Z,40
2017-06-09T08:50:51.483Z,40
2017-06-09T08:52:01.754Z,40
2017-06-09T08:53:10.912Z,40
2017-06-09T08:54:20.544Z,40
2017-06-09T08:55:30.184Z,40
2017-06-09T08:56:40.132Z,40
2017-06-09T08:57:50.469Z,40
2017-06-09T08:59:00.471Z,36
2017-06-09T09:00:10.423Z,36
2017-06-09T09:01:20.687Z,36
2017-06-09T09:02:30.949Z,36
2017-06-09T09:03:41.209Z,36
2017-06-09T09:04:51.171Z,32
2017-06-09T09:06:01.438Z,36
2017-06-09T09:07:11.703Z,32
2017-06-09T09:08:21.654Z,36
2017-06-09T09:09:30.969Z,32
2017-06-09T09:10:41.069Z,32
2017-06-09T09:11:51.329Z,32
2017-06-09T09:13:01.280Z,32
2017-06-09T09:14:11.540Z,36
2017-06-09T09:15:21.495Z,32
2017-06-09T09:16:31.445Z,32
2017-06-09T09:17:41.706Z,32
2017-06-09T09:18:51.969Z,32
2017-06-09T09:20:01.602Z,28
2017-06-09T09:21:11.868Z,28
2017-06-09T09:22:21.660Z,32
2017-06-09T09:23:31.610Z,28
2017-06-09T09:24:41.876Z,28
2017-06-09T09:25:52.139Z,28
2017-06-09T09:27:02.085Z,24
2017-06-09T09:28:12.349Z,28
2017-06-09T09:29:22.299Z,24
2017-06-09T09:30:32.250Z,24
2017-06-09T09:31:42.519Z,28
2017-06-09T09:32:52.785Z,24
2017-06-09T09:34:02.734Z,24
2017-06-09T09:35:13.005Z,24
2017-06-09T09:36:23.271Z,24
2017-06-09T09:37:32.908Z,24
2017-06-09T09:38:43.168Z,24
2017-06-09T09:39:52.806Z,20
2017-06-09T09:41:03.109Z,24
2017-06-09T09:42:13.380Z,24
2017-06-09T09:43:23.656Z,20
2017-06-09T09:44:33.292Z,20
2017-06-09T09:45:43.711Z,24
2017-06-09T09:46:53.032Z,20
2017-06-09T09:48:02.988Z,20
2017-06-09T09:49:11.999Z,24
2017-06-09T09:50:21.952Z,20
2017-06-09T09:51:31.907Z,20
2017-06-09T09:52:42.171Z,16
2017-06-09T09:53:52.121Z,20
2017-06-09T09:55:02.392Z,20
2017-06-09T09:56:12.654Z,20
2017-06-09T09:57:23.066Z,16
2017-06-09T09:58:33.331Z,16
2017-06-09T09:59:43.592Z,20
2017-06-09T10:00:53.539Z,16
2017-06-09T10:02:03.487Z,16
2017-06-09T10:03:13.761Z,16
2017-06-09T10:04:24.021Z,20
2017-06-09T10:05:33.969Z,20
2017-06-09T10:06:43.916Z,20
2017-06-09T10:07:53.864Z,16
2017-06-09T10:09:04.135Z,16
2017-06-09T10:10:13.772Z,16
2017-06-09T10:11:23.409Z,16
2017-06-09T10:12:33.670Z,16
2017-06-09T10:13:43.311Z,16
2017-06-09T10:14:52.939Z,16
2017-06-09T10:16:02.909Z,16
2017-06-09T10:17:12.553Z,12
2017-06-09T10:18:22.819Z,16
2017-06-09T10:19:33.091Z,16
2017-06-09T10:20:43.198Z,12
2017-06-09T10:21:52.836Z,12
2017-06-09T10:23:02.469Z,16
2017-06-09T10:24:12.738Z,16
2017-06-09T10:25:22.687Z,12
2017-06-09T10:26:32.637Z,12
2017-06-09T10:27:42.585Z,12
2017-06-09T10:28:52.222Z,12
2017-06-09T10:30:02.175Z,12
2017-06-09T10:31:12.123Z,12
2017-06-09T10:32:22.379Z,12
2017-06-09T10:33:32.012Z,8
2017-06-09T10:34:41.961Z,12
2017-06-09T10:35:52.222Z,12
2017-06-09T10:37:01.885Z,12
2017-06-09T10:38:11.986Z,12
2017-06-09T10:39:22.249Z,12
2017-06-09T10:40:32.513Z,12
2017-06-09T10:41:42.459Z,12
2017-06-09T10:42:52.405Z,12
2017-06-09T10:44:02.364Z,12
2017-06-09T10:45:12.633Z,12
2017-06-09T10:46:22.577Z,8
2017-06-09T10:47:32.836Z,12
2017-06-09T10:48:43.097Z,12
2017-06-09T10:49:52.886Z,8
2017-06-09T10:51:03.151Z,12
2017-06-09T10:52:12.780Z,12
2017-06-09T10:53:22.408Z,8
2017-06-09T10:54:32.365Z,12
2017-06-09T10:55:42.625Z,12
2017-06-09T10:56:52.583Z,12
2017-06-09T10:58:02.226Z,12
2017-06-09T10:59:12.190Z,12
2017-06-09T11:00:22.456Z,12
2017-06-09T11:01:32.558Z,12
2017-06-09T11:02:42.185Z,12
2017-06-09T11:03:52.447Z,12
2017-06-09T11:05:02.710Z,8
2017-06-09T11:06:12.658Z,8
2017-06-09T11:07:22.921Z,12
2017-06-09T11:08:33.183Z,12
2017-06-09T11:09:43.137Z,8
2017-06-09T11:10:53.083Z,12
2017-06-09T11:12:03.034Z,12
2017-06-09T11:13:12.987Z,8
2017-06-09T11:14:22.943Z,12
2017-06-09T11:15:32.582Z,12
2017-06-09T11:16:42.215Z,12
2017-06-09T11:17:52.172Z,12
2017-06-09T11:19:02.263Z,12
2017-06-09T11:20:12.214Z,12
2017-06-09T11:21:21.851Z,12
2017-06-09T11:22:31.490Z,16
2017-06-09T11:23:41.756Z,12
2017-06-09T11:24:51.401Z,12
2017-06-09T11:26:01.355Z,12
2017-06-09T11:27:11.308Z,8
2017-06-09T11:28:21.259Z,12
2017-06-09T11:29:31.211Z,12
2017-06-09T11:30:41.152Z,12
2017-06-09T11:31:51.407Z,8
2017-06-09T11:33:01.671Z,12
2017-06-09T11:34:11.617Z,12
2017-06-09T11:35:21.873Z,12
2017-06-09T11:36:31.968Z,12
2017-06-09T11:37:41.919Z,12
2017-06-09T11:40:01.543Z,8
2017-06-09T11:41:11.805Z,12
2017-06-09T11:42:21.752Z,8
2017-06-09T11:43:32.023Z,8
2017-06-09T11:44:41.656Z,8
2017-06-09T11:45:51.918Z,12
2017-06-09T11:47:02.175Z,12
2017-06-09T11:48:12.270Z,8
2017-06-09T11:49:22.226Z,8
2017-06-09T11:50:32.494Z,8
2017-06-09T11:51:42.444Z,12
2017-06-09T11:52:52.390Z,12
2017-06-09T11:54:02.656Z,8
2017-06-09T11:55:12.603Z,12
2017-06-09T11:56:22.237Z,12
2017-06-09T11:57:31.861Z,12
2017-06-09T11:58:42.120Z,12
2017-06-09T11:59:52.070Z,12
2017-06-09T12:01:02.022Z,8
2017-06-09T12:02:11.972Z,8
2017-06-09T12:03:22.232Z,12
2017-06-09T12:04:32.639Z,12
2017-06-09T12:05:42.585Z,12
2017-06-09T12:06:52.856Z,8
2017-06-09T12:08:02.184Z,12
2017-06-09T12:09:12.140Z,12
2017-06-09T12:10:22.399Z,12
2017-06-09T12:11:32.657Z,12
2017-06-09T12:12:42.603Z,12
2017-06-09T12:13:52.235Z,12
2017-06-09T12:15:02.181Z,12
2017-06-09T12:16:12.446Z,16
2017-06-09T12:17:22.435Z,12
2017-06-09T12:18:32.388Z,12
2017-06-09T12:19:42.045Z,8
2017-06-09T12:20:51.990Z,12
2017-06-09T12:22:02.403Z,12
2017-06-09T12:23:12.350Z,12
2017-06-09T12:24:22.290Z,12
2017-06-09T12:25:31.922Z,12
2017-06-09T12:26:41.875Z,12
2017-06-09T12:27:52.519Z,16
2017-06-09T12:29:02.154Z,8
2017-06-09T12:30:12.111Z,12
2017-06-09T12:31:21.741Z,12
2017-06-09T12:32:32.027Z,12
2017-06-09T12:33:41.661Z,12
2017-06-09T12:34:51.924Z,12
2017-06-09T12:36:01.872Z,16
2017-06-09T12:37:12.129Z,12
2017-06-09T12:38:21.765Z,12
2017-06-09T12:39:32.031Z,16
2017-06-09T12:40:42.295Z,16
2017-06-09T12:41:52.553Z,16
2017-06-09T12:43:02.500Z,16
2017-06-09T12:44:12.446Z,16
2017-06-09T12:45:22.859Z,16
2017-06-09T12:46:32.805Z,12
2017-06-09T12:47:42.749Z,12
2017-06-09T12:48:52.384Z,16
2017-06-09T12:50:02.021Z,16
2017-06-09T12:51:11.658Z,16
2017-06-09T12:52:20.978Z,16
2017-06-09T12:53:31.247Z,16
2017-06-09T12:54:41.193Z,16
2017-06-09T12:55:51.455Z,12
2017-06-09T12:57:01.551Z,16
2017-06-09T12:58:11.812Z,16
2017-06-09T12:59:20.814Z,16
2017-06-09T13:00:30.456Z,20
2017-06-09T13:01:40.407Z,16
2017-06-09T13:02:50.670Z,12
2017-06-09T13:04:00.309Z,8
2017-06-09T13:05:10.260Z,12
2017-06-09T13:06:20.206Z,12
2017-06-09T13:07:29.525Z,12
2017-06-09T13:08:39.785Z,8
2017-06-09T13:09:49.413Z,8
2017-06-09T13:10:59.046Z,12
2017-06-09T13:12:08.996Z,12
2017-06-09T13:13:18.951Z,12
2017-06-09T13:14:28.902Z,12
2017-06-09T13:15:38.857Z,16
2017-06-09T13:16:48.494Z,20
2017-06-09T13:17:58.131Z,16
2017-06-09T13:19:08.396Z,12
2017-06-09T13:20:18.348Z,16
2017-06-09T13:21:28.295Z,8
2017-06-09T13:22:37.935Z,16
2017-06-09T13:23:47.925Z,8
2017-06-09T13:24:58.337Z,8
2017-06-09T13:26:08.286Z,12
2017-06-09T13:27:18.226Z,12
2017-06-09T13:28:28.484Z,12
2017-06-09T13:29:38.439Z,16
2017-06-09T13:30:48.702Z,16
2017-06-09T13:31:58.651Z,16
2017-06-09T13:33:08.926Z,12
2017-06-09T13:34:19.183Z,16
2017-06-09T13:35:29.448Z,16
2017-06-09T13:36:39.395Z,16
2017-06-09T13:37:49.024Z,16
2017-06-09T13:38:58.970Z,20
2017-06-09T13:40:08.297Z,20
2017-06-09T13:41:18.557Z,16
2017-06-09T13:42:28.964Z,20
2017-06-09T13:43:38.913Z,16
2017-06-09T13:44:48.553Z,16
2017-06-09T13:45:58.502Z,16
2017-06-09T13:47:08.448Z,12
2017-06-09T13:48:18.716Z,20
2017-06-09T13:49:28.670Z,20
2017-06-09T13:50:38.940Z,20
2017-06-09T13:51:49.207Z,20
2017-06-09T13:52:59.200Z,20
2017-06-09T13:54:09.306Z,16
2017-06-09T13:55:19.599Z,16
2017-06-09T13:56:29.549Z,16
2017-06-09T13:57:39.810Z,16
2017-06-09T13:58:49.761Z,16
2017-06-09T14:00:00.026Z,12
2017-06-09T14:01:09.668Z,12
2017-06-09T14:02:19.614Z,12
2017-06-09T14:03:29.561Z,12
2017-06-09T14:04:39.824Z,12
2017-06-09T14:05:50.239Z,12
2017-06-09T14:07:00.510Z,16
2017-06-09T14:08:10.462Z,12
2017-06-09T14:09:20.090Z,12
2017-06-09T14:10:30.357Z,12
2017-06-09T14:11:40.624Z,16
2017-06-09T14:12:50.269Z,12
2017-06-09T14:13:59.901Z,12
2017-06-09T14:15:09.854Z,16
2017-06-09T14:16:19.482Z,16
2017-06-09T14:17:29.584Z,16
2017-06-09T14:18:39.856Z,16
2017-06-09T14:19:50.110Z,16
2017-06-09T14:20:59.739Z,16
2017-06-09T14:22:10.025Z,16
2017-06-09T14:23:20.298Z,12
2017-06-09T14:24:30.556Z,12
2017-06-09T14:25:40.187Z,12
2017-06-09T14:26:50.462Z,16
2017-06-09T14:28:00.740Z,12
2017-06-09T14:29:11.007Z,16
2017-06-09T14:30:21.272Z,16
2017-06-09T14:31:30.910Z,12
2017-06-09T14:32:40.546Z,16
2017-06-09T14:33:50.961Z,12
2017-06-09T14:35:01.227Z,16
2017-06-09T14:36:11.175Z,12
2017-06-09T14:37:21.156Z,16
2017-06-09T14:38:30.800Z,20
2017-06-09T14:39:41.062Z,20
2017-06-09T14:40:51.326Z,16
2017-06-09T14:42:01.274Z,16
2017-06-09T14:43:11.250Z,16
2017-06-09T14:44:21.518Z,16
2017-06-09T14:45:30.674Z,16
2017-06-09T14:46:40.624Z,16
2017-06-09T14:47:50.603Z,20
2017-06-09T14:49:00.574Z,20
2017-06-09T14:50:10.837Z,16
2017-06-09T14:51:20.467Z,20
2017-06-09T14:52:30.106Z,20
2017-06-09T14:53:40.371Z,20
2017-06-09T14:54:50.332Z,16
2017-06-09T14:56:00.315Z,16
2017-06-09T14:57:09.952Z,12
2017-06-09T14:58:20.222Z,16
2017-06-09T14:59:30.176Z,16
2017-06-09T15:00:40.130Z,16
2017-06-09T15:01:49.776Z,24
2017-06-09T15:02:59.570Z,20
2017-06-09T15:04:09.524Z,24
2017-06-09T15:05:19.800Z,20
2017-06-09T15:06:29.754Z,16
2017-06-09T15:07:40.015Z,16
2017-06-09T15:08:50.279Z,16
2017-06-09T15:10:00.545Z,16
2017-06-09T15:11:10.179Z,16
2017-06-09T15:12:20.147Z,16
2017-06-09T15:13:30.097Z,16
2017-06-09T15:14:40.039Z,16
2017-06-09T15:15:50.302Z,20
2017-06-09T15:17:00.259Z,20
2017-06-09T15:18:10.214Z,16
2017-06-09T15:19:20.624Z,20
2017-06-09T15:20:30.881Z,16
2017-06-09T15:21:41.144Z,20
2017-06-09T15:22:51.092Z,16
2017-06-09T15:24:01.353Z,20
2017-06-09T15:25:11.326Z,16
2017-06-09T15:26:21.593Z,16
2017-06-09T15:27:31.545Z,12
2017-06-09T15:28:41.488Z,16
2017-06-09T15:29:51.125Z,16
2017-06-09T15:31:01.075Z,12
2017-06-09T15:32:11.345Z,12
2017-06-09T15:33:21.609Z,12
2017-06-09T15:34:31.878Z,12
2017-06-09T15:35:41.826Z,12
2017-06-09T15:36:52.240Z,12
2017-06-09T15:38:02.507Z,8
2017-06-09T15:39:12.145Z,8
2017-06-09T15:40:22.409Z,8
2017-06-09T15:41:32.672Z,8
2017-06-09T15:42:42.305Z,12
2017-06-09T15:43:52.250Z,12
2017-06-09T15:45:02.198Z,12
2017-06-09T15:46:12.462Z,8
2017-06-09T15:47:22.411Z,12
2017-06-09T15:48:32.675Z,12
2017-06-09T15:49:42.940Z,12
2017-06-09T15:50:52.575Z,12
2017-06-09T15:52:02.840Z,12
2017-06-09T15:53:12.798Z,8
2017-06-09T15:54:22.585Z,12
2017-06-09T15:55:32.220Z,12
2017-06-09T15:56:42.163Z,8
2017-06-09T15:57:51.804Z,12
2017-06-09T15:59:02.063Z,12
2017-06-09T16:00:12.164Z,8
2017-06-09T16:01:22.109Z,4
2017-06-09T16:02:32.063Z,8
2017-06-09T16:03:42.010Z,8
2017-06-09T16:04:51.958Z,8
2017-06-09T16:06:02.233Z,8
2017-06-09T16:07:12.189Z,4
2017-06-09T16:08:21.826Z,8
2017-06-09T16:09:31.148Z,8
2017-06-09T16:10:40.788Z,4
2017-06-09T16:11:50.932Z,4
2017-06-09T16:13:01.192Z,4
2017-06-09T16:14:11.456Z,4
2017-06-09T16:15:21.412Z,4
2017-06-09T16:16:31.352Z,4
2017-06-09T16:17:41.293Z,4
2017-06-09T16:18:51.588Z,4
2017-06-09T16:20:01.534Z,4
2017-06-09T16:21:11.183Z,4
2017-06-09T16:22:21.447Z,4
2017-06-09T16:23:31.233Z,4
2017-06-09T16:24:41.497Z,4
2017-06-09T16:25:51.447Z,4
2017-06-09T16:27:01.396Z,4
2017-06-09T16:28:11.670Z,4
2017-06-09T16:29:21.964Z,4
2017-06-09T16:30:31.927Z,4
2017-06-09T16:31:41.566Z,4
2017-06-09T16:32:51.825Z,4
2017-06-09T16:34:01.780Z,4
2017-06-09T16:35:12.220Z,4
2017-06-09T16:36:21.858Z,4
2017-06-09T16:37:32.127Z,4
2017-06-09T16:38:42.088Z,4
2017-06-09T16:39:52.105Z,8
2017-06-09T16:41:01.428Z,8
2017-06-09T16:42:11.380Z,8
2017-06-09T16:43:21.645Z,4
2017-06-09T16:44:31.594Z,4
2017-06-09T16:45:41.238Z,4
2017-06-09T16:46:51.196Z,4
2017-06-09T16:48:01.459Z,4
2017-06-09T16:49:11.417Z,4
2017-06-09T16:50:21.365Z,4
2017-06-09T16:51:31.323Z,4
2017-06-09T16:52:41.117Z,4
2017-06-09T16:53:51.072Z,8
2017-06-09T16:55:01.026Z,8